Time;durP1;ratioP1;P1;durP2;ratioP2;P2;SDS_P1;SDS_P2;PMS_P1;PMS_P2;Temp;Humidity;BMP_temperature;BMP_pressure;BME280_temperature;BME280_humidity;BME280_pressure;Samples;Min_cycle;Max_cycle;Signal;HPM_P1;HPM_P2
2023/08/14 00:01:28;;;;;;;;;;;;;;;;;;5324680;28;19935;-71
2023/08/14 00:04:00;;;;;;;;;;;;;;;;;;5327196;28;19908;-71
2023/08/14 00:06:31;;;;;;;;;;;;;;;;;;5325745;28;20396;-71
2023/08/14 00:09:02;;;;;;;;;;;;;;;;;;5326873;28;19908;-71
2023/08/14 00:11:33;;;;;;;;;;;;;;;;;;5326290;28;20338;-71
2023/08/14 00:14:04;;;;;;;;;;;;;;;;;;5325944;28;20362;-71
2023/08/14 00:16:35;;;;;;;;;;;;;;;;;;5326393;28;19915;-71
2023/08/14 00:19:06;;;;;;;;;;;;;;;;;;5326836;28;20310;-71
2023/08/14 00:21:37;;;;;;;;;;;;;;;;;;5325228;28;19911;-71
2023/08/14 00:24:08;;;;;;;;;;;;;;;;;;5326475;28;20003;-71
2023/08/14 00:26:40;;;;;;;;;;;;;;;;;;5325897;28;20262;-71
2023/08/14 00:29:11;;;;;;;;;;;;;;;;;;5325942;28;19908;-71
2023/08/14 00:31:42;;;;;;;;;;;;;;;;;;5325882;28;20021;-71
2023/08/14 00:34:13;;;;;;;;;;;;;;;;;;5325593;28;20370;-71
2023/08/14 00:36:44;;;;;;;;;;;;;;;;;;5325382;28;19965;-71
2023/08/14 00:39:15;;;;;;;;;;;;;;;;;;5326202;28;20002;-71
2023/08/14 00:41:47;;;;;;;;;;;;;;;;;;5324720;28;19911;-71
2023/08/14 00:44:18;;;;;;;;;;;;;;;;;;5326228;28;19939;-71
2023/08/14 00:46:49;;;;;;;;;;;;;;;;;;5325392;28;20028;-71
2023/08/14 00:49:20;;;;;;;;;;;;;;;;;;5325189;28;19911;-71
2023/08/14 00:51:51;;;;;;;;;;;;;;;;;;5325473;28;19908;-71
2023/08/14 00:54:22;;;;;;;;;;;;;;;;;;5325935;28;19980;-71
2023/08/14 00:56:53;;;;;;;;;;;;;;;;;;5324655;28;19911;-71
2023/08/14 00:59:24;;;;;;;;;;;;;;;;;;5325543;28;19912;-71
2023/08/14 01:01:56;;;;;;;;;;;;;;;;;;5325342;28;19922;-71
2023/08/14 01:04:27;;;;;;;;;;;;;;;;;;5325057;28;19951;-71
2023/08/14 01:06:58;;;;;;;;;;;;;;;;;;5325479;28;20000;-71
2023/08/14 01:09:29;;;;;;;;;;;;;;;;;;5324259;28;19907;-71
2023/08/14 01:12:00;;;;;;;;;;;;;;;;;;5325154;28;19948;-71
2023/08/14 01:14:31;;;;;;;;;;;;;;;;;;5324773;28;20002;-71
2023/08/14 01:17:02;;;;;;;;;;;;;;;;;;5325029;28;20323;-71
2023/08/14 01:19:33;;;;;;;;;;;;;;;;;;5324939;28;19908;-71
2023/08/14 01:22:04;;;;;;;;;;;;;;;;;;5325792;28;19922;-71
2023/08/14 01:24:36;;;;;;;;;;;;;;;;;;5323983;28;19911;-70
2023/08/14 01:27:07;;;;;;;;;;;;;;;;;;5325262;28;20331;-71
2023/08/14 01:29:38;;;;;;;;;;;;;;;;;;5324892;28;19908;-71
2023/08/14 01:32:09;;;;;;;;;;;;;;;;;;5324566;28;19977;-71
2023/08/14 01:34:40;;;;;;;;;;;;;;;;;;5324714;28;19908;-71
2023/08/14 01:37:11;;;;;;;;;;;;;;;;;;5324997;28;19927;-71
2023/08/14 01:39:42;;;;;;;;;;;;;;;;;;5323652;28;20319;-71
2023/08/14 01:42:13;;;;;;;;;;;;;;;;;;5325000;28;19919;-71
2023/08/14 01:44:44;;;;;;;;;;;;;;;;;;5323870;28;20288;-71
2023/08/14 01:47:18;;;;;;;;;;;;;;;;;;5324929;28;19953;-71
2023/08/14 01:49:49;;;;;;;;;;;;;;;;;;5324376;28;19912;-71
2023/08/14 01:52:20;;;;;;;;;;;;;;;;;;5324049;28;19914;-71
2023/08/14 01:54:52;;;;;;;;;;;;;;;;;;5324466;28;20265;-71
2023/08/14 01:57:23;;;;;;;;;;;;;;;;;;5324806;28;19908;-71
2023/08/14 01:59:54;;;;;;;;;;;;;;;;;;5323469;28;19957;-71
2023/08/14 02:02:25;;;;;;;;;;;;;;;;;;5324300;28;19923;-72
2023/08/14 02:04:56;;;;;;;;;;;;;;;;;;5324594;28;19908;-71
2023/08/14 02:07:27;;;;;;;;;;;;;;;;;;5323518;28;19904;-71
2023/08/14 02:09:58;;;;;;;;;;;;;;;;;;5324684;28;20281;-72
2023/08/14 02:12:30;;;;;;;;;;;;;;;;;;5324334;28;19911;-72
2023/08/14 02:15:01;;;;;;;;;;;;;;;;;;5324364;28;19907;-72
2023/08/14 02:17:33;;;;;;;;;;;;;;;;;;5324199;28;19930;-71
2023/08/14 02:20:04;;;;;;;;;;;;;;;;;;5323951;28;20404;-71
2023/08/14 02:22:35;;;;;;;;;;;;;;;;;;5323996;28;19916;-72
2023/08/14 02:25:06;;;;;;;;;;;;;;;;;;5328021;28;19908;-72
2023/08/14 02:27:37;;;;;;;;;;;;;;;;;;5327561;28;19969;-71
2023/08/14 02:30:08;;;;;;;;;;;;;;;;;;5328878;28;19947;-72
2023/08/14 02:32:40;;;;;;;;;;;;;;;;;;5328553;28;20006;-71
2023/08/14 02:35:11;;;;;;;;;;;;;;;;;;5327792;28;20033;-71
2023/08/14 02:37:42;;;;;;;;;;;;;;;;;;5328330;28;19908;-72
2023/08/14 02:40:13;;;;;;;;;;;;;;;;;;5328995;28;19908;-71
2023/08/14 02:42:44;;;;;;;;;;;;;;;;;;5327419;28;20365;-71
2023/08/14 02:45:15;;;;;;;;;;;;;;;;;;5328802;28;19911;-71
2023/08/14 02:47:46;;;;;;;;;;;;;;;;;;5328104;28;19908;-73
2023/08/14 02:50:17;;;;;;;;;;;;;;;;;;5327834;28;19911;-72
2023/08/14 02:52:49;;;;;;;;;;;;;;;;;;5328077;28;20309;-72
2023/08/14 02:55:20;;;;;;;;;;;;;;;;;;5327920;28;19907;-72
2023/08/14 02:57:51;;;;;;;;;;;;;;;;;;5327878;28;19958;-72
2023/08/14 03:00:22;;;;;;;;;;;;;;;;;;5328388;28;19919;-71
2023/08/14 03:02:53;;;;;;;;;;;;;;;;;;5326877;28;19923;-72
2023/08/14 03:05:24;;;;;;;;;;;;;;;;;;5328264;28;19994;-71
2023/08/14 03:07:55;;;;;;;;;;;;;;;;;;5328036;28;20255;-71
2023/08/14 03:10:26;;;;;;;;;;;;;;;;;;5327478;28;19915;-71
2023/08/14 03:12:57;;;;;;;;;;;;;;;;;;5327780;28;19911;-72
2023/08/14 03:15:29;;;;;;;;;;;;;;;;;;5327791;28;19912;-72
2023/08/14 03:18:00;;;;;;;;;;;;;;;;;;5327217;28;19914;-72
2023/08/14 03:20:31;;;;;;;;;;;;;;;;;;5327576;28;19908;-72
2023/08/14 03:23:02;;;;;;;;;;;;;;;;;;5327099;28;19927;-72
2023/08/14 03:25:33;;;;;;;;;;;;;;;;;;5327425;28;19915;-72
2023/08/14 03:28:04;;;;;;;;;;;;;;;;;;5327024;28;19908;-72
2023/08/14 03:30:35;;;;;;;;;;;;;;;;;;5326597;28;20285;-72
2023/08/14 03:33:06;;;;;;;;;;;;;;;;;;5327886;28;19914;-72
2023/08/14 03:35:38;;;;;;;;;;;;;;;;;;5326718;28;19919;-72
2023/08/14 03:38:09;;;;;;;;;;;;;;;;;;5326782;28;19908;-72
2023/08/14 03:40:40;;;;;;;;;;;;;;;;;;5326992;28;19908;-71
2023/08/14 03:43:11;;;;;;;;;;;;;;;;;;5327571;28;19922;-72
2023/08/14 03:45:42;;;;;;;;;;;;;;;;;;5326139;28;19908;-73
2023/08/14 03:48:13;;;;;;;;;;;;;;;;;;5327978;28;20420;-72
2023/08/14 03:50:44;;;;;;;;;;;;;;;;;;5326741;28;19908;-72
2023/08/14 03:53:15;;;;;;;;;;;;;;;;;;5326767;28;20425;-72
2023/08/14 03:55:46;;;;;;;;;;;;;;;;;;5326675;28;19953;-71
2023/08/14 03:58:17;;;;;;;;;;;;;;;;;;5326505;28;19908;-71
2023/08/14 04:00:49;;;;;;;;;;;;;;;;;;5326639;28;20759;-72
2023/08/14 04:03:21;;;;;;;;;;;;;;;;;;5326884;28;19916;-72
2023/08/14 04:05:52;;;;;;;;;;;;;;;;;;5325621;28;19992;-72
2023/08/14 04:08:23;;;;;;;;;;;;;;;;;;5326761;28;20376;-72
2023/08/14 04:10:56;;;;;;;;;;;;;;;;;;5326378;28;19907;-72
2023/08/14 04:13:28;;;;;;;;;;;;;;;;;;5325619;28;20354;-72
2023/08/14 04:16:03;;;;;;;;;;;;;;;;;;5326282;28;19953;-72
2023/08/14 04:18:34;;;;;;;;;;;;;;;;;;5326387;28;20319;-71
2023/08/14 04:21:05;;;;;;;;;;;;;;;;;;5326012;28;19904;-73
2023/08/14 04:23:36;;;;;;;;;;;;;;;;;;5326037;28;19916;-72
2023/08/14 04:26:07;;;;;;;;;;;;;;;;;;5326667;28;19938;-72
2023/08/14 04:28:38;;;;;;;;;;;;;;;;;;5325376;28;19908;-73
2023/08/14 04:31:10;;;;;;;;;;;;;;;;;;5326602;28;20370;-72
2023/08/14 04:33:41;;;;;;;;;;;;;;;;;;5325230;28;19965;-72
2023/08/14 04:36:12;;;;;;;;;;;;;;;;;;5326258;28;20405;-72
2023/08/14 04:38:43;;;;;;;;;;;;;;;;;;5325886;28;19911;-71
2023/08/14 04:41:14;;;;;;;;;;;;;;;;;;5325485;28;20281;-71
2023/08/14 04:43:45;;;;;;;;;;;;;;;;;;5325526;28;19974;-71
2023/08/14 04:46:16;;;;;;;;;;;;;;;;;;5325463;28;19908;-71
2023/08/14 04:48:47;;;;;;;;;;;;;;;;;;5324695;28;20393;-71
2023/08/14 04:51:18;;;;;;;;;;;;;;;;;;5325779;28;19908;-71
2023/08/14 04:53:49;;;;;;;;;;;;;;;;;;5325222;28;20400;-71
2023/08/14 04:56:21;;;;;;;;;;;;;;;;;;5325230;28;20281;-71
2023/08/14 04:58:52;;;;;;;;;;;;;;;;;;5325288;28;19911;-71
2023/08/14 05:01:23;;;;;;;;;;;;;;;;;;5325440;28;19922;-72
2023/08/14 05:03:54;;;;;;;;;;;;;;;;;;5324587;28;19916;-72
2023/08/14 05:06:25;;;;;;;;;;;;;;;;;;5325579;28;19922;-72
2023/08/14 05:08:56;;;;;;;;;;;;;;;;;;5324722;28;19915;-71
2023/08/14 05:11:27;;;;;;;;;;;;;;;;;;5325300;28;19915;-72
2023/08/14 05:13:59;;;;;;;;;;;;;;;;;;5325339;28;19907;-72
2023/08/14 05:16:30;;;;;;;;;;;;;;;;;;5324445;28;19907;-72
2023/08/14 05:19:01;;;;;;;;;;;;;;;;;;5325509;28;19908;-72
2023/08/14 05:21:32;;;;;;;;;;;;;;;;;;5324781;28;19912;-72
2023/08/14 05:24:03;;;;;;;;;;;;;;;;;;5324627;28;19923;-72
2023/08/14 05:26:34;;;;;;;;;;;;;;;;;;5324634;28;20289;-72
2023/08/14 05:29:05;;;;;;;;;;;;;;;;;;5325498;28;19908;-72
2023/08/14 05:31:37;;;;;;;;;;;;;;;;;;5324005;28;19907;-71
2023/08/14 05:34:08;;;;;;;;;;;;;;;;;;5325292;28;19915;-72
2023/08/14 05:36:39;;;;;;;;;;;;;;;;;;5323560;28;20412;-72
2023/08/14 05:39:10;;;;;;;;;;;;;;;;;;5324973;28;19908;-72
2023/08/14 05:41:41;;;;;;;;;;;;;;;;;;5324614;28;19912;-72
2023/08/14 05:44:12;;;;;;;;;;;;;;;;;;5324349;28;20435;-72
2023/08/14 05:46:43;;;;;;;;;;;;;;;;;;5324023;28;19924;-72
2023/08/14 05:49:14;;;;;;;;;;;;;;;;;;5324735;28;20254;-72
2023/08/14 05:51:45;;;;;;;;;;;;;;;;;;5323203;28;19998;-72
2023/08/14 05:54:16;;;;;;;;;;;;;;;;;;5324723;28;19914;-70
2023/08/14 05:56:49;;;;;;;;;;;;;;;;;;5324286;28;19931;-71
2023/08/14 05:59:20;;;;;;;;;;;;;;;;;;5324021;28;19907;-71
2023/08/14 06:01:51;;;;;;;;;;;;;;;;;;5324023;28;19912;-69
2023/08/14 06:04:23;;;;;;;;;;;;;;;;;;5324839;28;19952;-71
2023/08/14 06:06:54;;;;;;;;;;;;;;;;;;5323389;28;19915;-68
2023/08/14 06:09:25;;;;;;;;;;;;;;;;;;5323981;28;19907;-69
2023/08/14 06:11:56;;;;;;;;;;;;;;;;;;5323315;28;19904;-67
2023/08/14 06:14:27;;;;;;;;;;;;;;;;;;5323786;28;19912;-68
2023/08/14 06:16:58;;;;;;;;;;;;;;;;;;5323676;28;20284;-68
2023/08/14 06:19:29;;;;;;;;;;;;;;;;;;5323006;28;19904;-69
2023/08/14 06:22:01;;;;;;;;;;;;;;;;;;5324353;28;19951;-70
2023/08/14 06:24:32;;;;;;;;;;;;;;;;;;5323505;28;19912;-71
2023/08/14 06:27:03;;;;;;;;;;;;;;;;;;5323410;28;19934;-70
2023/08/14 06:29:34;;;;;;;;;;;;;;;;;;5323809;28;19999;-71
2023/08/14 06:32:05;;;;;;;;;;;;;;;;;;5324229;28;19933;-71
2023/08/14 06:34:36;;;;;;;;;;;;;;;;;;5322997;28;19908;-71
2023/08/14 06:37:08;;;;;;;;;;;;;;;;;;5323983;28;19919;-72
2023/08/14 06:39:39;;;;;;;;;;;;;;;;;;5323409;28;20282;-72
2023/08/14 06:42:10;;;;;;;;;;;;;;;;;;5323562;28;20480;-71
2023/08/14 06:44:41;;;;;;;;;;;;;;;;;;5323588;28;19984;-71
2023/08/14 06:47:12;;;;;;;;;;;;;;;;;;5323575;28;19962;-72
2023/08/14 06:49:43;;;;;;;;;;;;;;;;;;5323579;28;19912;-73
2023/08/14 06:52:14;;;;;;;;;;;;;;;;;;5324088;28;20354;-72
2023/08/14 06:54:45;;;;;;;;;;;;;;;;;;5322535;28;19915;-72
2023/08/14 06:57:16;;;;;;;;;;;;;;;;;;5324114;28;19918;-72
2023/08/14 06:59:48;;;;;;;;;;;;;;;;;;5323532;28;20302;-72
2023/08/14 07:02:19;;;;;;;;;;;;;;;;;;5323137;28;19922;-72
2023/08/14 07:04:50;;;;;;;;;;;;;;;;;;5323617;28;19929;-72
2023/08/14 07:07:21;;;;;;;;;;;;;;;;;;5323877;28;19955;-72
2023/08/14 07:09:52;;;;;;;;;;;;;;;;;;5324015;28;20006;-72
2023/08/14 07:12:23;;;;;;;;;;;;;;;;;;5327821;28;19973;-72
2023/08/14 07:14:54;;;;;;;;;;;;;;;;;;5327520;28;20314;-72
2023/08/14 07:17:25;;;;;;;;;;;;;;;;;;5326556;28;19908;-71
2023/08/14 07:19:57;;;;;;;;;;;;;;;;;;5327601;28;20346;-72
2023/08/14 07:22:28;;;;;;;;;;;;;;;;;;5326504;28;19922;-70
2023/08/14 07:24:59;;;;;;;;;;;;;;;;;;5327469;28;19908;-71
2023/08/14 07:27:30;;;;;;;;;;;;;;;;;;5327180;28;19933;-71
2023/08/14 07:30:01;;;;;;;;;;;;;;;;;;5326357;28;19975;-71
2023/08/14 07:32:32;;;;;;;;;;;;;;;;;;5326898;28;19911;-71
2023/08/14 07:35:03;;;;;;;;;;;;;;;;;;5327573;28;19908;-72
2023/08/14 07:37:34;;;;;;;;;;;;;;;;;;5326084;28;19912;-71
2023/08/14 07:40:06;;;;;;;;;;;;;;;;;;5327489;28;19912;-71
2023/08/14 07:42:37;;;;;;;;;;;;;;;;;;5326705;28;19937;-71
2023/08/14 07:45:08;;;;;;;;;;;;;;;;;;5326664;28;19908;-72
2023/08/14 07:47:40;;;;;;;;;;;;;;;;;;5326487;28;19950;-72
2023/08/14 07:50:11;;;;;;;;;;;;;;;;;;5327173;28;20336;-71
2023/08/14 07:52:42;;;;;;;;;;;;;;;;;;5325696;28;20361;-72
2023/08/14 07:55:13;;;;;;;;;;;;;;;;;;5326837;28;19915;-72
2023/08/14 07:57:45;;;;;;;;;;;;;;;;;;5325770;28;20277;-72
2023/08/14 08:00:17;;;;;;;;;;;;;;;;;;5327083;28;19908;-71
2023/08/14 08:02:48;;;;;;;;;;;;;;;;;;5326164;28;19996;-71
2023/08/14 08:05:19;;;;;;;;;;;;;;;;;;5326161;28;19933;-71
2023/08/14 08:07:50;;;;;;;;;;;;;;;;;;5326085;28;19930;-71
2023/08/14 08:10:21;;;;;;;;;;;;;;;;;;5326944;28;19908;-71
2023/08/14 08:12:52;;;;;;;;;;;;;;;;;;5310577;28;19907;-71
2023/08/14 08:15:24;;;;;;;;;;;;;;;;;;5320217;28;20011;-72
2023/08/14 08:17:55;;;;;;;;;;;;;;;;;;5326288;28;20263;-70
2023/08/14 08:20:26;;;;;;;;;;;;;;;;;;5325436;28;19903;-70
2023/08/14 08:22:57;;;;;;;;;;;;;;;;;;5324686;28;19915;-71
2023/08/14 08:25:28;;;;;;;;;;;;;;;;;;5325101;28;19908;-72
2023/08/14 08:27:59;;;;;;;;;;;;;;;;;;5325997;28;19908;-72
2023/08/14 08:30:30;;;;;;;;;;;;;;;;;;5325634;28;19912;-72
2023/08/14 08:33:02;;;;;;;;;;;;;;;;;;5325591;28;20239;-72
2023/08/14 08:35:33;;;;;;;;;;;;;;;;;;5325150;28;19919;-72
2023/08/14 08:38:04;;;;;;;;;;;;;;;;;;5325259;28;20366;-72
2023/08/14 08:40:35;;;;;;;;;;;;;;;;;;5323692;28;19908;-72
2023/08/14 08:43:07;;;;;;;;;;;;;;;;;;5323977;28;19915;-72
2023/08/14 08:45:38;;;;;;;;;;;;;;;;;;5323626;28;19908;-72
2023/08/14 08:48:09;;;;;;;;;;;;;;;;;;5323895;28;20357;-72
2023/08/14 08:50:42;;;;;;;;;;;;;;;;;;5323100;28;20142;-72
2023/08/14 08:53:14;;;;;;;;;;;;;;;;;;5324509;28;20107;-72
2023/08/14 08:55:45;;;;;;;;;;;;;;;;;;5323342;28;19961;-72
2023/08/14 08:58:16;;;;;;;;;;;;;;;;;;5325966;28;19908;-72
2023/08/14 09:00:47;;;;;;;;;;;;;;;;;;5324702;28;20331;-72
2023/08/14 09:03:18;;;;;;;;;;;;;;;;;;5325706;28;19915;-72
2023/08/14 09:05:51;;;;;;;;;;;;;;;;;;5325475;28;19918;-72
2023/08/14 09:08:22;;;;;;;;;;;;;;;;;;5325060;28;19904;-72
2023/08/14 09:10:53;;;;;;;;;;;;;;;;;;5325113;28;19908;-72
2023/08/14 09:13:24;;;;;;;;;;;;;;;;;;5325398;28;19907;-72
2023/08/14 09:15:55;;;;;;;;;;;;;;;;;;5324386;28;19914;-72
2023/08/14 09:18:26;;;;;;;;;;;;;;;;;;5325405;28;20383;-72
2023/08/14 09:20:57;;;;;;;;;;;;;;;;;;5325396;28;19907;-72
2023/08/14 09:23:28;;;;;;;;;;;;;;;;;;5324168;28;19973;-72
2023/08/14 09:26:00;;;;;;;;;;;;;;;;;;5325076;28;19907;-72
2023/08/14 09:28:31;;;;;;;;;;;;;;;;;;5324686;28;19907;-73
2023/08/14 09:31:02;;;;;;;;;;;;;;;;;;5324442;28;19908;-71
2023/08/14 09:33:33;;;;;;;;;;;;;;;;;;5324509;28;20255;-72
2023/08/14 09:36:04;;;;;;;;;;;;;;;;;;5324692;28;19923;-72
2023/08/14 09:38:35;;;;;;;;;;;;;;;;;;5324547;28;20282;-72
2023/08/14 09:41:06;;;;;;;;;;;;;;;;;;5325394;28;20009;-72
2023/08/14 09:43:37;;;;;;;;;;;;;;;;;;5323737;28;19960;-72
2023/08/14 09:46:09;;;;;;;;;;;;;;;;;;5324919;28;20060;-72
2023/08/14 09:48:40;;;;;;;;;;;;;;;;;;5324425;28;19908;-71
2023/08/14 09:51:11;;;;;;;;;;;;;;;;;;5324016;28;19914;-71
2023/08/14 09:53:43;;;;;;;;;;;;;;;;;;5324546;28;19912;-71
2023/08/14 09:56:14;;;;;;;;;;;;;;;;;;5325065;28;19908;-71
2023/08/14 09:58:45;;;;;;;;;;;;;;;;;;5323679;28;20463;-71
2023/08/14 10:01:16;;;;;;;;;;;;;;;;;;5323952;28;19930;-71
2023/08/14 10:03:49;;;;;;;;;;;;;;;;;;5323703;28;20030;-70
2023/08/14 10:06:20;;;;;;;;;;;;;;;;;;5324122;28;19908;-71
2023/08/14 10:08:51;;;;;;;;;;;;;;;;;;5324047;28;19915;-72
2023/08/14 10:11:22;;;;;;;;;;;;;;;;;;5324011;28;19907;-71
2023/08/14 10:13:53;;;;;;;;;;;;;;;;;;5323967;28;19911;-71
2023/08/14 10:16:24;;;;;;;;;;;;;;;;;;5324199;28;19918;-71
2023/08/14 10:18:55;;;;;;;;;;;;;;;;;;5323110;28;19919;-70
2023/08/14 10:21:27;;;;;;;;;;;;;;;;;;5324264;28;19904;-71
2023/08/14 10:23:59;;;;;;;;;;;;;;;;;;5324047;28;19916;-72
2023/08/14 10:26:30;;;;;;;;;;;;;;;;;;5322731;28;20316;-72
2023/08/14 10:29:01;;;;;;;;;;;;;;;;;;5324535;28;19915;-72
2023/08/14 10:31:32;;;;;;;;;;;;;;;;;;5323992;28;19915;-73
2023/08/14 10:34:03;;;;;;;;;;;;;;;;;;5323517;28;20380;-73
2023/08/14 10:36:34;;;;;;;;;;;;;;;;;;5323411;28;19927;-73
2023/08/14 10:39:06;;;;;;;;;;;;;;;;;;5323343;28;19907;-72
2023/08/14 10:41:37;;;;;;;;;;;;;;;;;;5323304;28;20306;-72
2023/08/14 10:44:08;;;;;;;;;;;;;;;;;;5324126;28;19916;-71
2023/08/14 10:46:39;;;;;;;;;;;;;;;;;;5327212;28;20369;-73
2023/08/14 10:49:10;;;;;;;;;;;;;;;;;;5328669;28;19931;-73
2023/08/14 10:51:42;;;;;;;;;;;;;;;;;;5327822;28;19962;-74
2023/08/14 10:54:13;;;;;;;;;;;;;;;;;;5327813;28;19953;-73
2023/08/14 10:56:45;;;;;;;;;;;;;;;;;;5327919;28;19908;-74
2023/08/14 10:59:16;;;;;;;;;;;;;;;;;;5328496;28;19920;-73
2023/08/14 11:01:47;;;;;;;;;;;;;;;;;;5326828;28;20341;-74
2023/08/14 11:04:18;;;;;;;;;;;;;;;;;;5328245;28;19953;-75
2023/08/14 11:06:49;;;;;;;;;;;;;;;;;;5327556;28;19916;-74
2023/08/14 11:09:21;;;;;;;;;;;;;;;;;;5327414;28;19915;-74
2023/08/14 11:11:52;;;;;;;;;;;;;;;;;;5327561;28;19915;-73
2023/08/14 11:14:23;;;;;;;;;;;;;;;;;;5326939;28;19908;-74
2023/08/14 11:16:54;;;;;;;;;;;;;;;;;;5327858;28;19908;-73
2023/08/14 11:19:25;;;;;;;;;;;;;;;;;;5327957;28;19908;-74
2023/08/14 11:21:56;;;;;;;;;;;;;;;;;;5326891;28;19908;-74
2023/08/14 11:24:29;;;;;;;;;;;;;;;;;;5327472;28;19918;-74
2023/08/14 11:27:00;;;;;;;;;;;;;;;;;;5327612;28;19908;-75
2023/08/14 11:29:31;;;;;;;;;;;;;;;;;;5326639;28;19929;-75
2023/08/14 11:32:02;;;;;;;;;;;;;;;;;;5327831;28;19951;-73
2023/08/14 11:34:34;;;;;;;;;;;;;;;;;;5327062;28;19915;-76
2023/08/14 11:37:07;;;;;;;;;;;;;;;;;;5326803;28;19920;-74
2023/08/14 11:39:38;;;;;;;;;;;;;;;;;;5326840;28;19908;-74
2023/08/14 11:42:09;;;;;;;;;;;;;;;;;;5327534;28;19919;-74
2023/08/14 11:44:40;;;;;;;;;;;;;;;;;;5326321;28;19915;-74
2023/08/14 11:47:11;;;;;;;;;;;;;;;;;;5327494;28;19908;-74
2023/08/14 11:49:42;;;;;;;;;;;;;;;;;;5325893;28;20475;-74
2023/08/14 11:52:13;;;;;;;;;;;;;;;;;;5327344;28;19912;-74
2023/08/14 11:54:45;;;;;;;;;;;;;;;;;;5326709;28;20373;-74
2023/08/14 11:57:16;;;;;;;;;;;;;;;;;;5326130;28;19915;-74
2023/08/14 11:59:47;;;;;;;;;;;;;;;;;;5326484;28;20270;-73
2023/08/14 12:02:19;;;;;;;;;;;;;;;;;;5326720;28;19916;-73
2023/08/14 12:04:50;;;;;;;;;;;;;;;;;;5325573;28;19919;-72
2023/08/14 12:07:21;;;;;;;;;;;;;;;;;;5327125;28;19904;-72
2023/08/14 12:09:53;;;;;;;;;;;;;;;;;;5326220;28;19933;-72
2023/08/14 12:12:24;;;;;;;;;;;;;;;;;;5325695;28;19947;-73
2023/08/14 12:14:55;;;;;;;;;;;;;;;;;;5326381;28;19908;-71
2023/08/14 12:17:26;;;;;;;;;;;;;;;;;;5326306;28;19908;-72
2023/08/14 12:19:57;;;;;;;;;;;;;;;;;;5325590;28;19931;-70
2023/08/14 12:22:28;;;;;;;;;;;;;;;;;;5326364;28;19916;-71
2023/08/14 12:25:04;;;;;;;;;;;;;;;;;;5325463;28;20267;-72
2023/08/14 12:27:35;;;;;;;;;;;;;;;;;;5325475;28;19937;-72
2023/08/14 12:30:06;;;;;;;;;;;;;;;;;;5326445;28;19912;-72
2023/08/14 12:32:38;;;;;;;;;;;;;;;;;;5325135;28;20270;-73
2023/08/14 12:35:09;;;;;;;;;;;;;;;;;;5323030;28;19953;-72
2023/08/14 12:37:40;;;;;;;;;;;;;;;;;;5325816;28;20011;-72
2023/08/14 12:40:11;;;;;;;;;;;;;;;;;;5325543;28;20383;-72
2023/08/14 12:42:42;;;;;;;;;;;;;;;;;;5325375;28;19969;-72
2023/08/14 12:45:13;;;;;;;;;;;;;;;;;;5326363;28;20326;-71
2023/08/14 12:47:44;;;;;;;;;;;;;;;;;;5324598;28;19967;-71
2023/08/14 12:50:15;;;;;;;;;;;;;;;;;;5325989;28;19908;-70
2023/08/14 12:52:46;;;;;;;;;;;;;;;;;;5324436;28;19915;-70
2023/08/14 12:55:18;;;;;;;;;;;;;;;;;;5326047;28;19969;-71
2023/08/14 12:57:49;;;;;;;;;;;;;;;;;;5325241;28;19957;-71
2023/08/14 13:00:21;;;;;;;;;;;;;;;;;;5325122;28;19912;-70
2023/08/14 13:02:52;;;;;;;;;;;;;;;;;;5324992;28;19920;-71
2023/08/14 13:05:23;;;;;;;;;;;;;;;;;;5325404;28;20331;-70
2023/08/14 13:07:54;;;;;;;;;;;;;;;;;;5324114;28;19911;-71
2023/08/14 13:10:26;;;;;;;;;;;;;;;;;;5325390;28;19923;-70
2023/08/14 13:12:57;;;;;;;;;;;;;;;;;;5325245;28;19908;-71
2023/08/14 13:15:28;;;;;;;;;;;;;;;;;;5324392;28;19946;-71
2023/08/14 13:17:59;;;;;;;;;;;;;;;;;;5325244;28;19915;-71
2023/08/14 13:20:30;;;;;;;;;;;;;;;;;;5324821;28;20354;-71
2023/08/14 13:23:01;;;;;;;;;;;;;;;;;;5324417;28;20018;-71
2023/08/14 13:25:32;;;;;;;;;;;;;;;;;;5324471;28;19915;-71
2023/08/14 13:28:03;;;;;;;;;;;;;;;;;;5324493;28;19917;-70
2023/08/14 13:30:35;;;;;;;;;;;;;;;;;;5324734;28;20390;-70
2023/08/14 13:33:06;;;;;;;;;;;;;;;;;;5325294;28;19999;-73
2023/08/14 13:35:37;;;;;;;;;;;;;;;;;;5323323;28;19927;-72
2023/08/14 13:38:08;;;;;;;;;;;;;;;;;;5325046;28;20274;-72
2023/08/14 13:40:39;;;;;;;;;;;;;;;;;;5324281;28;19912;-72
2023/08/14 13:43:10;;;;;;;;;;;;;;;;;;5324207;28;20366;-72
2023/08/14 13:45:41;;;;;;;;;;;;;;;;;;5324605;28;19907;-71
2023/08/14 13:48:12;;;;;;;;;;;;;;;;;;5324817;28;19915;-70
2023/08/14 13:50:43;;;;;;;;;;;;;;;;;;5323391;28;19912;-71
2023/08/14 13:53:14;;;;;;;;;;;;;;;;;;5325142;28;19912;-72
2023/08/14 13:55:46;;;;;;;;;;;;;;;;;;5324387;28;19922;-71
2023/08/14 13:58:17;;;;;;;;;;;;;;;;;;5324125;28;19915;-73
2023/08/14 14:00:48;;;;;;;;;;;;;;;;;;5324186;28;19935;-72
2023/08/14 14:03:19;;;;;;;;;;;;;;;;;;5323846;28;19920;-71
2023/08/14 14:05:50;;;;;;;;;;;;;;;;;;5324231;28;19919;-72
2023/08/14 14:08:21;;;;;;;;;;;;;;;;;;5324511;28;19911;-72
2023/08/14 14:10:52;;;;;;;;;;;;;;;;;;5323319;28;20362;-72
2023/08/14 14:13:23;;;;;;;;;;;;;;;;;;5324149;28;19969;-71
2023/08/14 14:15:55;;;;;;;;;;;;;;;;;;5324266;28;19908;-72
2023/08/14 14:18:26;;;;;;;;;;;;;;;;;;5323405;28;19931;-72
2023/08/14 14:20:57;;;;;;;;;;;;;;;;;;5323547;28;20269;-72
2023/08/14 14:23:28;;;;;;;;;;;;;;;;;;5323726;28;19916;-72
2023/08/14 14:25:59;;;;;;;;;;;;;;;;;;5323370;28;20319;-71
2023/08/14 14:28:30;;;;;;;;;;;;;;;;;;5323668;28;19907;-71
2023/08/14 14:31:01;;;;;;;;;;;;;;;;;;5324107;28;19969;-71
2023/08/14 14:33:32;;;;;;;;;;;;;;;;;;5322825;28;19912;-72
2023/08/14 14:36:03;;;;;;;;;;;;;;;;;;5324000;28;20262;-72
2023/08/14 14:38:34;;;;;;;;;;;;;;;;;;5322571;28;19911;-72
2023/08/14 14:41:06;;;;;;;;;;;;;;;;;;5324318;28;19915;-71
2023/08/14 14:43:37;;;;;;;;;;;;;;;;;;5323385;28;19915;-72
2023/08/14 14:46:08;;;;;;;;;;;;;;;;;;5323091;28;19987;-71
2023/08/14 14:48:39;;;;;;;;;;;;;;;;;;5323130;28;19908;-72
2023/08/14 14:51:10;;;;;;;;;;;;;;;;;;5323831;28;19969;-71
2023/08/14 14:53:41;;;;;;;;;;;;;;;;;;5322618;28;19908;-72
2023/08/14 14:56:12;;;;;;;;;;;;;;;;;;5324062;28;19908;-72
2023/08/14 14:58:44;;;;;;;;;;;;;;;;;;5323258;28;20022;-72
2023/08/14 15:01:15;;;;;;;;;;;;;;;;;;5323063;28;20346;-69
2023/08/14 15:03:46;;;;;;;;;;;;;;;;;;5322807;28;20010;-71
2023/08/14 15:06:17;;;;;;;;;;;;;;;;;;5323614;28;19915;-70
2023/08/14 15:08:48;;;;;;;;;;;;;;;;;;5322929;28;19911;-71
2023/08/14 15:11:20;;;;;;;;;;;;;;;;;;5324126;28;19965;-71
2023/08/14 15:13:51;;;;;;;;;;;;;;;;;;5322028;28;19903;-72
2023/08/14 15:16:22;;;;;;;;;;;;;;;;;;5325571;28;20316;-72
2023/08/14 15:18:53;;;;;;;;;;;;;;;;;;5324773;28;19904;-71
2023/08/14 15:21:24;;;;;;;;;;;;;;;;;;5323319;28;20336;-73
2023/08/14 15:23:55;;;;;;;;;;;;;;;;;;5324773;28;19922;-73
2023/08/14 15:26:26;;;;;;;;;;;;;;;;;;5323338;28;19908;-73
2023/08/14 15:28:57;;;;;;;;;;;;;;;;;;5322555;28;20251;-72
2023/08/14 15:31:28;;;;;;;;;;;;;;;;;;5324937;28;19912;-73
2023/08/14 15:34:00;;;;;;;;;;;;;;;;;;5327388;28;19907;-72
2023/08/14 15:36:31;;;;;;;;;;;;;;;;;;5326027;28;20382;-72
2023/08/14 15:39:03;;;;;;;;;;;;;;;;;;5327417;28;19995;-72
2023/08/14 15:41:34;;;;;;;;;;;;;;;;;;5326386;28;20285;-73
2023/08/14 15:44:05;;;;;;;;;;;;;;;;;;5327249;28;19967;-73
2023/08/14 15:46:36;;;;;;;;;;;;;;;;;;5326824;28;20391;-73
2023/08/14 15:49:07;;;;;;;;;;;;;;;;;;5326468;28;19976;-73
2023/08/14 15:51:38;;;;;;;;;;;;;;;;;;5326332;28;20314;-73
2023/08/14 15:54:09;;;;;;;;;;;;;;;;;;5327481;28;19908;-71
2023/08/14 15:56:41;;;;;;;;;;;;;;;;;;5325930;28;19915;-72
2023/08/14 15:59:12;;;;;;;;;;;;;;;;;;5327217;28;19907;-72
2023/08/14 16:01:43;;;;;;;;;;;;;;;;;;5326448;28;19949;-74
2023/08/14 16:04:14;;;;;;;;;;;;;;;;;;5326034;28;19942;-73
2023/08/14 16:06:45;;;;;;;;;;;;;;;;;;5324999;28;19927;-71
2023/08/14 16:09:17;;;;;;;;;;;;;;;;;;5326336;28;19946;-71
2023/08/14 16:11:48;;;;;;;;;;;;;;;;;;5325194;28;19986;-71
2023/08/14 16:14:19;;;;;;;;;;;;;;;;;;5326125;28;19904;-71
2023/08/14 16:16:50;;;;;;;;;;;;;;;;;;5323607;28;19912;-72
2023/08/14 16:19:21;;;;;;;;;;;;;;;;;;5324541;28;19903;-71
2023/08/14 16:21:52;;;;;;;;;;;;;;;;;;5323617;28;19930;-71
2023/08/14 16:24:23;;;;;;;;;;;;;;;;;;5323524;28;19916;-73
2023/08/14 16:26:54;;;;;;;;;;;;;;;;;;5323794;28;19912;-73
2023/08/14 16:29:26;;;;;;;;;;;;;;;;;;5324320;28;19915;-75
2023/08/14 16:31:57;;;;;;;;;;;;;;;;;;5324203;28;19985;-73
2023/08/14 16:34:28;;;;;;;;;;;;;;;;;;5326270;28;19931;-74
2023/08/14 16:36:59;;;;;;;;;;;;;;;;;;5325963;28;19931;-74
2023/08/14 16:39:30;;;;;;;;;;;;;;;;;;5324329;28;19914;-73
2023/08/14 16:42:01;;;;;;;;;;;;;;;;;;5323560;28;19994;-73
2023/08/14 16:44:32;;;;;;;;;;;;;;;;;;5323421;28;19938;-74
2023/08/14 16:47:04;;;;;;;;;;;;;;;;;;5323314;28;19911;-73
2023/08/14 16:49:36;;;;;;;;;;;;;;;;;;5323355;28;19947;-73
2023/08/14 16:52:07;;;;;;;;;;;;;;;;;;5323323;28;19912;-73
2023/08/14 16:54:39;;;;;;;;;;;;;;;;;;5324509;28;19999;-74
2023/08/14 16:57:10;;;;;;;;;;;;;;;;;;5326166;28;19998;-73
2023/08/14 16:59:41;;;;;;;;;;;;;;;;;;5324367;28;19907;-73
2023/08/14 17:02:12;;;;;;;;;;;;;;;;;;5325498;28;19908;-72
2023/08/14 17:04:43;;;;;;;;;;;;;;;;;;5325369;28;19912;-72
2023/08/14 17:07:14;;;;;;;;;;;;;;;;;;5325190;28;19912;-73
2023/08/14 17:09:46;;;;;;;;;;;;;;;;;;5325134;28;19995;-73
2023/08/14 17:12:17;;;;;;;;;;;;;;;;;;5325678;28;20361;-73